createdAt,value
2023-02-20T00:00:01.776Z,100.00
2023-02-20T00:02:36.207Z,100.00
2023-02-20T00:05:05.156Z,100.00
2023-02-20T00:07:33.761Z,100.00
2023-02-20T00:10:06.965Z,100.00
2023-02-20T00:12:37.354Z,100.00
2023-02-20T00:15:08.415Z,100.00
2023-02-20T00:17:36.775Z,100.00
2023-02-20T00:20:18.235Z,100.00
2023-02-20T00:22:46.779Z,100.00
2023-02-20T00:25:16.474Z,100.00
2023-02-20T00:27:51.954Z,100.00
2023-02-20T00:30:22.321Z,100.00
2023-02-20T00:32:54.504Z,100.00
2023-02-20T00:35:24.066Z,100.00
2023-02-20T00:37:52.598Z,100.00
2023-02-20T00:40:22.237Z,100.00
2023-02-20T00:42:50.492Z,100.00
2023-02-20T00:45:18.976Z,100.00
2023-02-20T00:47:47.531Z,100.00
2023-02-20T00:50:16.492Z,100.00
2023-02-20T00:52:46.341Z,100.00
2023-02-20T00:55:17.271Z,100.00
2023-02-20T00:57:48.121Z,100.00
2023-02-20T01:00:27.487Z,100.00
2023-02-20T01:02:55.918Z,100.00
2023-02-20T01:05:24.732Z,100.00
2023-02-20T01:07:55.105Z,100.00
2023-02-20T01:10:25.985Z,100.00
2023-02-20T01:12:54.432Z,100.00
2023-02-20T01:15:22.994Z,100.00
2023-02-20T01:17:51.277Z,100.00
2023-02-20T01:20:19.742Z,100.00
2023-02-20T01:22:48.006Z,100.00
2023-02-20T01:25:16.494Z,100.00
2023-02-20T01:27:46.033Z,100.00
2023-02-20T01:30:16.266Z,100.00
2023-02-20T01:32:44.658Z,100.00
2023-02-20T01:35:13.762Z,100.00
2023-02-20T01:37:42.568Z,100.00
2023-02-20T01:40:22.099Z,100.00
2023-02-20T01:42:50.684Z,100.00
2023-02-20T01:45:22.118Z,100.00
2023-02-20T01:47:52.194Z,100.00
2023-02-20T01:50:27.985Z,100.00
2023-02-20T01:53:02.180Z,100.00
2023-02-20T01:55:44.930Z,100.00
2023-02-20T01:58:26.336Z,100.00
2023-02-20T02:00:57.484Z,100.00
2023-02-20T02:03:27.247Z,100.00
2023-02-20T02:05:59.258Z,100.00
2023-02-20T02:08:30.614Z,100.00
2023-02-20T02:11:03.819Z,100.00
2023-02-20T02:13:36.772Z,100.00
2023-02-20T02:16:26.889Z,100.00
2023-02-20T02:19:00.547Z,100.00
2023-02-20T02:21:50.867Z,100.00
2023-02-20T02:24:51.745Z,100.00
2023-02-20T02:27:28.937Z,100.00
2023-02-20T02:30:29.766Z,100.00
2023-02-20T02:33:13.629Z,100.00
2023-02-20T02:36:30.413Z,100.00
2023-02-20T02:39:37.551Z,100.00
2023-02-20T02:42:21.136Z,100.00
2023-02-20T02:45:01.163Z,100.00
2023-02-20T02:48:19.099Z,100.00
2023-02-20T02:50:47.948Z,100.00
2023-02-20T02:53:16.372Z,100.00
2023-02-20T02:55:45.127Z,100.00
2023-02-20T02:58:13.372Z,100.00
2023-02-20T03:00:51.917Z,100.00
2023-02-20T03:03:27.773Z,100.00
2023-02-20T03:06:03.390Z,100.00
2023-02-20T03:09:13.090Z,100.00
2023-02-20T03:11:42.607Z,100.00
2023-02-20T03:14:38.580Z,100.00
2023-02-20T03:17:15.821Z,100.00
2023-02-20T03:19:48.281Z,100.00
2023-02-20T03:22:20.386Z,100.00
2023-02-20T03:24:56.520Z,100.00
2023-02-20T03:27:54.058Z,100.00
2023-02-20T03:30:27.979Z,100.00
2023-02-20T03:33:23.980Z,100.00
2023-02-20T03:36:11.122Z,100.00
2023-02-20T03:38:58.189Z,100.00
2023-02-20T03:41:45.079Z,100.00
2023-02-20T03:44:13.604Z,100.00
2023-02-20T03:46:42.624Z,100.00
2023-02-20T03:49:34.458Z,100.00
2023-02-20T03:52:03.779Z,100.00
2023-02-20T03:54:39.325Z,100.00
2023-02-20T03:57:13.872Z,100.00
2023-02-20T03:59:46.549Z,100.00
2023-02-20T04:02:37.200Z,100.00
2023-02-20T04:05:08.226Z,100.00
2023-02-20T04:07:43.987Z,100.00
2023-02-20T04:10:14.884Z,100.00
2023-02-20T04:12:44.272Z,100.00
2023-02-20T04:15:12.902Z,100.00
2023-02-20T04:17:47.583Z,100.00
2023-02-20T04:20:16.221Z,100.00
2023-02-20T04:22:51.374Z,100.00
2023-02-20T04:25:25.775Z,100.00
2023-02-20T04:27:55.458Z,100.00
2023-02-20T04:30:23.964Z,100.00
2023-02-20T04:32:52.541Z,100.00
2023-02-20T04:35:25.407Z,100.00
2023-02-20T04:37:55.092Z,100.00
2023-02-20T04:40:27.171Z,100.00
2023-02-20T04:42:55.713Z,100.00
2023-02-20T04:45:24.139Z,100.00
2023-02-20T04:47:53.148Z,100.00
2023-02-20T04:50:24.907Z,100.00
2023-02-20T04:52:53.489Z,100.00
2023-02-20T04:55:22.510Z,100.00
2023-02-20T04:57:52.206Z,100.00
2023-02-20T05:00:22.247Z,100.00
2023-02-20T05:02:51.190Z,100.00
2023-02-20T05:05:23.448Z,100.00
2023-02-20T05:07:57.226Z,100.00
2023-02-20T05:10:25.889Z,100.00
2023-02-20T05:12:54.542Z,100.00
2023-02-20T05:15:24.774Z,100.00
2023-02-20T05:17:56.454Z,100.00
2023-02-20T05:20:44.628Z,100.00
2023-02-20T05:23:13.755Z,100.00
2023-02-20T05:25:42.794Z,100.00
2023-02-20T05:28:12.128Z,100.00
2023-02-20T05:30:41.351Z,100.00
2023-02-20T05:33:09.922Z,100.00
2023-02-20T05:35:40.756Z,100.00
2023-02-20T05:38:17.778Z,100.00
2023-02-20T05:40:46.717Z,100.00
2023-02-20T05:43:17.066Z,100.00
2023-02-20T05:45:46.085Z,100.00
2023-02-20T05:48:14.998Z,100.00
2023-02-20T05:50:43.851Z,100.00
2023-02-20T05:53:18.915Z,100.00
2023-02-20T05:55:47.565Z,100.00
2023-02-20T05:58:15.901Z,100.00
2023-02-20T06:00:44.110Z,100.00
2023-02-20T06:03:17.353Z,100.00
2023-02-20T06:05:45.689Z,100.00
2023-02-20T06:08:15.335Z,100.00
2023-02-20T06:10:43.749Z,100.00
2023-02-20T06:13:12.470Z,100.00
2023-02-20T06:15:40.831Z,100.00
2023-02-20T06:18:09.524Z,100.00
2023-02-20T06:20:37.795Z,100.00
2023-02-20T06:23:06.050Z,100.00
2023-02-20T06:25:34.342Z,100.00
2023-02-20T06:28:02.827Z,100.00
2023-02-20T06:30:31.857Z,100.00
2023-02-20T06:33:00.527Z,100.00
2023-02-20T06:35:28.964Z,100.00
2023-02-20T06:37:57.538Z,100.00
2023-02-20T06:40:25.849Z,100.00
2023-02-20T06:42:54.794Z,100.00
2023-02-20T06:45:26.253Z,100.00
2023-02-20T06:47:54.657Z,100.00
2023-02-20T06:50:23.010Z,100.00
2023-02-20T06:52:51.493Z,100.00
2023-02-20T06:55:20.207Z,100.00
2023-02-20T06:57:49.559Z,100.00
2023-02-20T07:00:21.379Z,100.00
2023-02-20T07:02:50.110Z,100.00
2023-02-20T07:05:19.074Z,100.00
2023-02-20T07:07:55.013Z,100.00
2023-02-20T07:10:25.286Z,100.00
2023-02-20T07:13:03.548Z,99.83
2023-02-20T07:15:32.592Z,99.43
2023-02-20T07:18:01.507Z,99.58
2023-02-20T07:20:30.501Z,98.68
2023-02-20T07:22:59.771Z,98.28
2023-02-20T07:25:28.973Z,97.18
2023-02-20T07:27:57.873Z,95.57
2023-02-20T07:30:26.847Z,96.01
2023-02-20T07:32:57.702Z,96.55
2023-02-20T07:35:26.693Z,96.73
2023-02-20T07:37:59.925Z,96.30
2023-02-20T07:40:28.959Z,95.35
2023-02-20T07:42:57.853Z,95.43
2023-02-20T07:45:30.623Z,93.15
2023-02-20T07:47:58.970Z,91.73
2023-02-20T07:50:27.483Z,92.48
2023-02-20T07:52:56.068Z,92.32
2023-02-20T07:55:24.618Z,91.79
2023-02-20T07:57:54.653Z,91.43
2023-02-20T08:00:24.056Z,90.35
2023-02-20T08:02:59.782Z,91.80
2023-02-20T08:05:32.803Z,92.15
2023-02-20T08:08:06.293Z,91.18
2023-02-20T08:10:37.505Z,91.37
2023-02-20T08:13:06.351Z,91.76
2023-02-20T08:15:37.229Z,90.60
2023-02-20T08:18:09.902Z,90.37
2023-02-20T08:20:45.213Z,90.93
2023-02-20T08:23:17.877Z,91.48
2023-02-20T08:25:46.881Z,90.04
2023-02-20T08:28:16.789Z,89.17
2023-02-20T08:30:45.949Z,90.01
2023-02-20T08:33:16.100Z,88.79
2023-02-20T08:35:45.044Z,88.64
2023-02-20T08:38:36.540Z,89.15
2023-02-20T08:41:07.864Z,90.33
2023-02-20T08:43:38.486Z,90.90
2023-02-20T08:46:07.496Z,91.09
2023-02-20T08:48:38.791Z,92.82
2023-02-20T08:51:08.434Z,92.44
2023-02-20T08:53:38.126Z,89.60
2023-02-20T08:56:07.201Z,88.88
2023-02-20T08:58:35.793Z,88.06
2023-02-20T09:01:05.443Z,89.22
2023-02-20T09:03:35.084Z,90.25
2023-02-20T09:06:03.918Z,88.70
2023-02-20T09:08:32.673Z,86.17
2023-02-20T09:11:02.880Z,85.60
2023-02-20T09:13:33.364Z,84.62
2023-02-20T09:16:02.278Z,85.54
2023-02-20T09:18:33.762Z,86.10
2023-02-20T09:21:02.245Z,84.73
2023-02-20T09:23:31.336Z,84.06
2023-02-20T09:26:00.012Z,82.64
2023-02-20T09:28:29.039Z,81.57
2023-02-20T09:31:00.768Z,78.32
2023-02-20T09:33:30.034Z,78.34
2023-02-20T09:35:58.486Z,77.85
2023-02-20T09:38:28.635Z,74.45
2023-02-20T09:40:58.787Z,75.35
2023-02-20T09:44:05.914Z,74.69
2023-02-20T09:46:35.312Z,70.18
2023-02-20T09:49:17.938Z,70.38
2023-02-20T09:51:51.530Z,67.00
2023-02-20T09:54:25.293Z,66.35
2023-02-20T09:56:58.724Z,65.90
2023-02-20T09:59:29.685Z,64.72
2023-02-20T10:02:23.654Z,66.66
2023-02-20T10:05:01.191Z,68.56
2023-02-20T10:07:34.451Z,68.12
2023-02-20T10:10:21.198Z,65.37
2023-02-20T10:13:13.791Z,63.15
2023-02-20T10:16:04.511Z,64.30
2023-02-20T10:18:56.057Z,64.51
2023-02-20T10:21:59.784Z,64.98
2023-02-20T10:24:37.386Z,64.79
2023-02-20T10:27:42.291Z,63.66
2023-02-20T10:30:14.432Z,64.60
2023-02-20T10:32:49.350Z,65.50
2023-02-20T10:35:58.243Z,66.20
2023-02-20T10:38:30.706Z,65.42
2023-02-20T10:40:59.764Z,63.29
2023-02-20T10:43:31.170Z,63.04
2023-02-20T10:46:39.836Z,63.44
2023-02-20T10:49:19.353Z,63.41
2023-02-20T10:51:49.454Z,63.11
2023-02-20T10:54:31.229Z,62.17
2023-02-20T10:57:19.523Z,62.41
2023-02-20T10:59:52.523Z,62.30
2023-02-20T11:02:25.784Z,59.71
2023-02-20T11:05:06.388Z,58.27
2023-02-20T11:07:36.254Z,57.34
2023-02-20T11:10:05.142Z,58.25
2023-02-20T11:12:37.353Z,58.34
2023-02-20T11:15:10.361Z,57.64
2023-02-20T11:17:39.663Z,55.67
2023-02-20T11:20:41.677Z,56.03
2023-02-20T11:23:11.731Z,57.56
2023-02-20T11:25:42.317Z,58.35
2023-02-20T11:28:14.228Z,58.72
2023-02-20T11:30:43.923Z,59.66
2023-02-20T11:33:17.377Z,59.13
2023-02-20T11:35:47.301Z,57.77
2023-02-20T11:38:17.395Z,58.16
2023-02-20T11:40:48.045Z,58.96
2023-02-20T11:43:22.372Z,59.04
2023-02-20T11:45:54.673Z,58.29
2023-02-20T11:48:23.159Z,56.43
2023-02-20T11:50:52.715Z,56.67
2023-02-20T11:53:23.085Z,57.18
2023-02-20T11:56:13.922Z,57.95
2023-02-20T11:58:43.547Z,58.38
2023-02-20T12:01:40.753Z,57.74
2023-02-20T12:04:19.420Z,55.74
2023-02-20T12:06:48.311Z,55.67
2023-02-20T12:09:18.810Z,55.16
2023-02-20T12:11:50.870Z,56.18
2023-02-20T12:14:20.687Z,55.81
2023-02-20T12:17:15.372Z,54.74
2023-02-20T12:19:59.144Z,54.39
2023-02-20T12:22:34.365Z,54.77
2023-02-20T12:25:21.306Z,55.06
2023-02-20T12:27:53.135Z,55.50
2023-02-20T12:30:27.627Z,55.28
2023-02-20T12:33:19.198Z,55.81
2023-02-20T12:35:54.123Z,56.40
2023-02-20T12:38:48.864Z,56.33
2023-02-20T12:41:26.283Z,56.85
2023-02-20T12:44:18.936Z,57.09
2023-02-20T12:46:58.596Z,57.07
2023-02-20T12:49:43.334Z,56.90
2023-02-20T12:52:31.780Z,56.92
2023-02-20T12:55:14.440Z,56.93
2023-02-20T12:57:50.323Z,56.41
2023-02-20T13:00:35.205Z,55.76
2023-02-20T13:03:18.776Z,56.21
2023-02-20T13:05:49.695Z,56.15
2023-02-20T13:08:34.306Z,56.38
2023-02-20T13:11:05.778Z,56.61
2023-02-20T13:14:01.230Z,56.85
2023-02-20T13:16:56.043Z,56.78
2023-02-20T13:19:58.433Z,56.45
2023-02-20T13:22:28.162Z,56.36
2023-02-20T13:25:31.921Z,56.75
2023-02-20T13:28:08.740Z,56.45
2023-02-20T13:30:37.241Z,56.55
2023-02-20T13:33:28.256Z,56.27
2023-02-20T13:35:57.220Z,55.30
2023-02-20T13:38:26.833Z,55.63
2023-02-20T13:40:55.557Z,55.89
2023-02-20T13:43:24.950Z,55.42
2023-02-20T13:46:12.916Z,54.89
2023-02-20T13:48:45.969Z,55.12
2023-02-20T13:51:14.709Z,55.85
2023-02-20T13:53:43.425Z,56.43
2023-02-20T13:59:37.813Z,56.85
2023-02-20T14:02:06.107Z,56.79
2023-02-20T14:04:34.974Z,57.67
2023-02-20T14:07:04.019Z,58.02
2023-02-20T14:09:32.831Z,58.04
2023-02-20T14:12:06.845Z,58.65
2023-02-20T14:14:42.375Z,59.01
2023-02-20T14:17:16.151Z,59.20
2023-02-20T14:19:47.989Z,59.42
2023-02-20T14:22:19.614Z,59.85
2023-02-20T14:25:01.193Z,60.20
2023-02-20T14:27:32.229Z,60.40
2023-02-20T14:30:17.026Z,60.52
2023-02-20T14:32:50.846Z,60.69
2023-02-20T14:36:08.355Z,60.64
2023-02-20T14:38:50.342Z,61.02
2023-02-20T14:41:21.222Z,61.35
2023-02-20T14:43:59.814Z,61.46
2023-02-20T14:46:35.385Z,61.81
2023-02-20T14:49:06.660Z,61.74
2023-02-20T14:51:35.874Z,62.16
2023-02-20T14:54:17.839Z,62.32
2023-02-20T14:56:47.556Z,62.54
2023-02-20T14:59:30.897Z,62.57
2023-02-20T15:02:04.274Z,62.80
2023-02-20T15:04:33.250Z,63.14
2023-02-20T15:07:04.582Z,63.67
2023-02-20T15:09:42.735Z,63.94
2023-02-20T15:12:28.517Z,64.23
2023-02-20T15:15:02.582Z,64.38
2023-02-20T15:17:33.622Z,64.29
2023-02-20T15:20:35.888Z,64.34
2023-02-20T15:23:16.630Z,64.93
2023-02-20T15:25:45.606Z,65.16
2023-02-20T15:28:18.815Z,65.23
2023-02-20T15:31:13.321Z,65.17
2023-02-20T15:33:53.686Z,64.88
2023-02-20T15:36:24.094Z,64.84
2023-02-20T15:38:55.294Z,64.74
2023-02-20T15:41:24.121Z,64.72
2023-02-20T15:43:52.586Z,64.56
2023-02-20T15:46:21.312Z,64.67
2023-02-20T15:48:50.296Z,64.88
2023-02-20T15:51:22.950Z,64.99
2023-02-20T15:53:52.833Z,65.17
2023-02-20T15:56:21.505Z,65.33
2023-02-20T15:58:50.175Z,65.66
2023-02-20T16:01:18.773Z,65.64
2023-02-20T16:03:53.225Z,65.84
2023-02-20T16:06:23.630Z,66.01
2023-02-20T16:08:52.703Z,66.32
2023-02-20T16:11:26.081Z,66.64
2023-02-20T16:13:58.606Z,66.97
2023-02-20T16:16:32.673Z,67.43
2023-02-20T16:19:02.420Z,67.51
2023-02-20T16:21:31.754Z,67.71
2023-02-20T16:24:00.457Z,67.88
2023-02-20T16:26:34.665Z,68.05
2023-02-20T16:29:17.515Z,68.00
2023-02-20T16:31:56.104Z,68.10
2023-02-20T16:34:27.444Z,67.90
2023-02-20T16:36:56.755Z,67.69
2023-02-20T16:39:27.188Z,67.63
2023-02-20T16:41:58.083Z,67.59
2023-02-20T16:44:32.918Z,67.56
2023-02-20T16:47:01.537Z,67.49
2023-02-20T16:49:37.336Z,67.53
2023-02-20T16:52:25.987Z,67.39
2023-02-20T16:54:55.222Z,67.48
2023-02-20T16:57:24.062Z,67.66
2023-02-20T16:59:55.827Z,67.74
2023-02-20T17:02:33.538Z,67.73
2023-02-20T17:05:03.698Z,67.99
2023-02-20T17:07:36.606Z,68.00
2023-02-20T17:10:08.509Z,68.24
2023-02-20T17:12:45.746Z,68.90
2023-02-20T17:15:17.967Z,69.75
2023-02-20T17:17:49.470Z,71.18
2023-02-20T17:20:44.388Z,72.09
2023-02-20T17:27:01.884Z,73.12
2023-02-20T17:29:33.685Z,72.55
2023-02-20T17:32:03.470Z,71.83
2023-02-20T17:34:32.828Z,71.40
2023-02-20T17:37:01.588Z,70.90
2023-02-20T17:39:32.583Z,70.29
2023-02-20T17:42:01.685Z,69.47
2023-02-20T17:44:32.993Z,69.34
2023-02-20T17:47:04.299Z,68.84
2023-02-20T17:49:33.204Z,68.59
2023-02-20T17:52:02.648Z,68.59
2023-02-20T17:54:34.651Z,68.58
2023-02-20T17:57:04.512Z,68.83
2023-02-20T17:59:37.087Z,69.38
2023-02-20T18:02:06.218Z,69.91
2023-02-20T18:04:34.794Z,70.69
2023-02-20T18:07:03.250Z,71.48
2023-02-20T18:09:33.580Z,72.39
2023-02-20T18:12:03.920Z,72.78
2023-02-20T18:14:33.928Z,73.33
2023-02-20T18:17:02.862Z,73.97
2023-02-20T18:19:32.606Z,74.41
2023-02-20T18:22:01.425Z,74.78
2023-02-20T18:24:30.428Z,75.18
2023-02-20T18:26:59.160Z,75.24
2023-02-20T18:29:30.935Z,75.38
2023-02-20T18:31:59.460Z,75.33
2023-02-20T18:34:28.504Z,75.59
2023-02-20T18:36:56.997Z,75.74
2023-02-20T18:39:25.579Z,76.13
2023-02-20T18:41:55.609Z,76.58
2023-02-20T18:44:24.986Z,77.14
2023-02-20T18:46:53.857Z,77.96
2023-02-20T18:49:22.452Z,78.37
2023-02-20T18:51:50.992Z,78.83
2023-02-20T18:54:27.264Z,79.77
2023-02-20T18:56:56.729Z,80.74
2023-02-20T18:59:27.443Z,81.84
2023-02-20T19:01:56.065Z,82.65
2023-02-20T19:04:25.065Z,83.52
2023-02-20T19:06:53.825Z,84.11
2023-02-20T19:09:25.622Z,84.33
2023-02-20T19:11:55.990Z,84.29
2023-02-20T19:14:26.334Z,84.03
2023-02-20T19:16:58.648Z,83.89
2023-02-20T19:19:28.576Z,83.21
2023-02-20T19:21:58.058Z,82.77
2023-02-20T19:24:26.662Z,82.70
2023-02-20T19:26:55.033Z,82.71
2023-02-20T19:29:25.910Z,82.86
2023-02-20T19:31:54.385Z,82.84
2023-02-20T19:34:23.139Z,82.96
2023-02-20T19:36:54.320Z,82.77
2023-02-20T19:39:26.494Z,82.36
2023-02-20T19:41:55.145Z,82.32
2023-02-20T19:44:24.400Z,81.79
2023-02-20T19:46:53.285Z,81.32
2023-02-20T19:49:22.933Z,81.28
2023-02-20T19:51:52.830Z,81.11
2023-02-20T19:54:28.085Z,80.97
2023-02-20T19:57:01.460Z,81.02
2023-02-20T19:59:31.883Z,80.88
2023-02-20T20:02:00.754Z,80.76
2023-02-20T20:04:32.357Z,80.82
2023-02-20T20:07:03.002Z,81.04
2023-02-20T20:09:36.579Z,80.81
2023-02-20T20:12:26.790Z,80.36
2023-02-20T20:14:55.500Z,80.23
2023-02-20T20:17:26.409Z,80.46
2023-02-20T20:19:59.564Z,81.27
2023-02-20T20:22:29.619Z,82.20
2023-02-20T20:24:59.089Z,83.46
2023-02-20T20:27:29.342Z,84.52
2023-02-20T20:29:58.582Z,85.79
2023-02-20T20:32:28.759Z,86.74
2023-02-20T20:34:57.440Z,87.82
2023-02-20T20:37:27.771Z,89.07
2023-02-20T20:39:59.533Z,90.11
2023-02-20T20:42:28.544Z,91.05
2023-02-20T20:45:02.474Z,92.44
2023-02-20T20:47:31.672Z,93.80
2023-02-20T20:50:00.638Z,94.91
2023-02-20T20:52:31.240Z,95.88
2023-02-20T20:55:01.386Z,96.47
2023-02-20T20:57:35.395Z,96.87
2023-02-20T21:00:33.227Z,97.35
2023-02-20T21:03:03.387Z,98.10
2023-02-20T21:05:33.639Z,98.94
2023-02-20T21:08:06.183Z,99.91
2023-02-20T21:10:37.697Z,100.00
2023-02-20T21:13:06.109Z,100.00
2023-02-20T21:15:35.781Z,100.00
2023-02-20T21:18:05.029Z,100.00
2023-02-20T21:20:36.075Z,100.00
2023-02-20T21:23:05.223Z,100.00
2023-02-20T21:25:38.812Z,100.00
2023-02-20T21:28:08.016Z,100.00
2023-02-20T21:30:36.616Z,100.00
2023-02-20T21:33:05.359Z,100.00
2023-02-20T21:35:33.806Z,100.00
2023-02-20T21:38:02.614Z,100.00
2023-02-20T21:40:31.416Z,100.00
2023-02-20T21:43:20.270Z,100.00
2023-02-20T21:45:50.684Z,100.00
2023-02-20T21:48:19.396Z,100.00
2023-02-20T21:50:48.165Z,100.00
2023-02-20T21:53:18.492Z,100.00
2023-02-20T21:55:46.782Z,100.00
2023-02-20T21:58:18.009Z,100.00
2023-02-20T22:00:47.271Z,99.64
2023-02-20T22:03:16.135Z,99.17
2023-02-20T22:05:44.614Z,98.58
2023-02-20T22:08:31.940Z,98.51
2023-02-20T22:11:20.661Z,98.26
2023-02-20T22:14:08.080Z,97.89
2023-02-20T22:16:54.943Z,97.28
2023-02-20T22:19:42.138Z,97.06
2023-02-20T22:22:32.438Z,96.49
2023-02-20T22:25:20.508Z,96.27
2023-02-20T22:28:08.782Z,96.35
2023-02-20T22:30:56.148Z,96.27
2023-02-20T22:33:43.394Z,96.12
2023-02-20T22:36:30.917Z,96.13
2023-02-20T22:39:18.078Z,95.41
2023-02-20T22:42:05.308Z,95.07
2023-02-20T22:44:53.030Z,94.75
2023-02-20T22:47:40.249Z,94.34
2023-02-20T22:50:27.404Z,93.80
2023-02-20T22:53:14.698Z,93.53
2023-02-20T22:56:01.602Z,93.63
2023-02-20T22:58:48.768Z,93.63
2023-02-20T23:01:37.255Z,93.76
2023-02-20T23:04:24.488Z,93.72
2023-02-20T23:07:11.595Z,93.50
2023-02-20T23:09:58.278Z,93.39
2023-02-20T23:12:45.002Z,93.04
2023-02-20T23:15:32.967Z,92.76
2023-02-20T23:18:22.724Z,92.37
2023-02-20T23:21:09.642Z,92.32
2023-02-20T23:23:56.530Z,92.00
2023-02-20T23:26:43.277Z,91.65
2023-02-20T23:29:30.650Z,91.39
2023-02-20T23:32:18.374Z,91.36
2023-02-20T23:35:05.415Z,91.31
2023-02-20T23:37:55.124Z,91.05
2023-02-20T23:40:41.843Z,90.78
2023-02-20T23:43:29.374Z,90.45
2023-02-20T23:46:16.921Z,90.17
2023-02-20T23:49:03.883Z,89.95
2023-02-20T23:51:50.897Z,89.76
2023-02-20T23:54:38.162Z,89.62
2023-02-20T23:57:26.653Z,89.09
